Time;durP1;ratioP1;P1;durP2;ratioP2;P2;SDS_P1;SDS_P2;PMS_P1;PMS_P2;Temp;Humidity;BMP_temperature;BMP_pressure;BME280_temperature;BME280_humidity;BME280_pressure;Samples;Min_cycle;Max_cycle;Signal;HPM_P1;HPM_P2
2021/04/29 08:11:45;;;;;;;31.63;16.83;;;;;;;21.85;59.64;94736.50;5109708;27;20531;-74
2021/04/29 08:14:11;;;;;;;21.87;16.00;;;;;;;22.04;59.41;94738.44;5110049;28;20459;-74
2021/04/29 08:16:38;;;;;;;21.67;15.53;;;;;;;22.43;56.99;94736.78;5054656;28;20501;-78
2021/04/29 08:19:04;;;;;;;20.50;15.03;;;;;;;22.45;56.45;94732.88;5089154;28;20449;-73
2021/04/29 08:21:30;;;;;;;23.20;15.50;;;;;;;22.36;55.93;94738.66;5089533;28;20449;-73
2021/04/29 08:23:57;;;;;;;18.70;13.67;;;;;;;22.56;54.55;94734.94;5070453;28;20943;-76
2021/04/29 08:26:24;;;;;;;24.80;16.03;;;;;;;22.38;56.08;94732.06;5095416;28;20980;-73
2021/04/29 08:28:51;;;;;;;27.17;15.60;;;;;;;22.49;60.22;94728.75;5090062;28;20819;-75
2021/04/29 08:31:18;;;;;;;32.27;15.80;;;;;;;22.30;59.33;94728.78;5090670;28;20481;-75
2021/04/29 08:33:44;;;;;;;25.03;15.33;;;;;;;22.51;58.91;94729.38;5074614;28;20455;-75
2021/04/29 08:36:11;;;;;;;36.90;18.67;;;;;;;22.58;56.91;94724.03;5072084;28;20450;-75
2021/04/29 08:38:37;;;;;;;31.27;18.23;;;;;;;22.69;58.29;94722.56;5089766;28;20451;-74
2021/04/29 08:41:04;;;;;;;19.20;15.00;;;;;;;22.41;57.49;94725.47;5089156;28;20504;-74
2021/04/29 08:43:30;;;;;;;21.73;16.43;;;;;;;22.53;59.25;94716.59;5107643;28;20795;-77
2021/04/29 08:45:57;;;;;;;27.30;15.67;;;;;;;22.56;59.24;94713.53;5090073;28;20441;-77
2021/04/29 08:48:25;;;;;;;25.97;16.30;;;;;;;22.58;59.11;94705.31;5090697;28;20487;-77
2021/04/29 08:50:52;;;;;;;21.40;15.67;;;;;;;22.75;58.49;94708.34;5088984;28;20567;-73
2021/04/29 08:53:19;;;;;;;30.43;17.37;;;;;;;22.76;57.30;94715.34;5089113;28;20452;-73
2021/04/29 08:55:45;;;;;;;30.30;16.37;;;;;;;22.64;56.49;94704.47;5088955;28;20485;-73
2021/04/29 08:58:12;;;;;;;21.00;15.90;;;;;;;22.67;58.10;94706.72;5088928;28;20435;-73
2021/04/29 09:00:39;;;;;;;23.87;16.00;;;;;;;22.44;57.48;94701.81;5088831;28;20446;-73
2021/04/29 09:03:06;;;;;;;23.13;15.00;;;;;;;22.38;58.39;94704.50;5088925;28;20446;-73
2021/04/29 09:05:33;;;;;;;25.60;13.93;;;;;;;22.13;59.05;94705.13;5088320;28;20786;-74
2021/04/29 09:08:02;;;;;;;20.73;14.40;;;;;;;22.28;59.81;94701.44;5070095;28;20483;-73
2021/04/29 09:10:30;;;;;;;25.00;15.00;;;;;;;22.49;60.44;94701.19;5088411;28;20497;-73
2021/04/29 09:12:58;;;;;;;23.53;13.93;;;;;;;22.52;57.64;94700.75;5069457;28;20962;-73
2021/04/29 09:15:27;;;;;;;20.20;13.07;;;;;;;22.62;55.97;94692.34;5089042;28;20451;-73
2021/04/29 09:18:09;;;;;;;20.03;13.83;;;;;;;22.72;57.31;94693.53;5088324;28;20788;-73
2021/04/29 09:20:36;;;;;;;24.67;14.80;;;;;;;22.46;57.25;94691.72;5088347;28;20439;-73
2021/04/29 09:23:05;;;;;;;18.70;13.50;;;;;;;;;;5075717;28;20552;-73
2021/04/29 09:25:32;;;;;;;19.30;12.83;;;;;;;22.51;58.06;94683.06;5075313;28;21005;-73
2021/04/29 09:27:58;;;;;;;23.77;14.50;;;;;;;22.57;58.40;94682.25;5075066;28;20443;-74
2021/04/29 09:30:26;;;;;;;21.67;14.67;;;;;;;22.54;58.51;94690.69;5075185;28;20486;-73
2021/04/29 09:32:53;;;;;;;24.73;13.87;;;;;;;22.32;57.54;94689.28;5074574;28;20493;-73
2021/04/29 09:35:21;;;;;;;16.20;13.33;;;;;;;22.09;58.92;94695.06;5074567;28;20455;-73
2021/04/29 09:37:48;;;;;;;21.43;14.60;;;;;;;22.22;59.13;94684.34;5075077;28;20450;-73
2021/04/29 09:40:25;;;;;;;22.17;13.80;;;;;;;22.20;58.82;94678.38;5074948;28;20458;-73
2021/04/29 09:42:52;;;;;;;19.03;12.10;;;;;;;22.20;58.31;94681.06;5074670;28;20780;-73
2021/04/29 09:45:25;;;;;;;23.40;15.30;;;;;;;21.90;60.21;94681.44;5090167;28;20457;-73
2021/04/29 09:48:00;;;;;;;19.60;14.43;;;;;;;21.93;61.78;94690.88;5091859;28;20532;-73
2021/04/29 09:50:29;;;;;;;15.37;13.30;;;;;;;21.95;61.55;94686.97;5074426;28;20485;-73
2021/04/29 09:53:01;;;;;;;19.63;13.23;;;;;;;22.04;61.39;94687.66;5074433;28;20438;-75
2021/04/29 09:55:29;;;;;;;17.80;13.77;;;;;;;22.14;62.63;94687.22;5074402;28;20442;-73
2021/04/29 09:58:09;;;;;;;18.10;14.33;;;;;;;22.12;61.07;94683.94;5080720;28;20551;-73
2021/04/29 10:00:37;;;;;;;18.77;13.40;;;;;;;22.00;61.43;94682.91;5074363;28;20455;-73
2021/04/29 10:03:04;;;;;;;21.77;14.93;;;;;;;22.13;61.56;94678.41;5074348;28;20857;-73
2021/04/29 10:05:35;;;;;;;24.40;14.90;;;;;;;22.10;61.27;94678.00;5074320;28;20443;-73
2021/04/29 10:08:02;;;;;;;18.20;13.50;;;;;;;22.17;61.50;94666.25;5074172;28;20466;-74
2021/04/29 10:10:32;;;;;;;25.10;13.33;;;;;;;22.20;63.22;94659.66;5074113;28;20818;-73
2021/04/29 10:13:00;;;;;;;20.33;13.90;;;;;;;22.26;62.96;94661.50;5074419;28;20451;-73
2021/04/29 10:15:27;;;;;;;21.83;13.03;;;;;;;22.13;61.39;94667.69;5074213;28;20447;-73
2021/04/29 10:17:54;;;;;;;22.67;12.60;;;;;;;22.22;61.15;94660.28;5074232;28;20477;-73
2021/04/29 10:20:21;;;;;;;19.97;13.40;;;;;;;22.24;59.43;94656.38;5074118;28;20752;-73
2021/04/29 10:22:48;;;;;;;18.63;12.60;;;;;;;22.11;61.17;94651.06;5073610;28;20443;-74
2021/04/29 10:25:25;;;;;;;16.47;12.53;;;;;;;22.16;61.64;94648.56;5055104;28;20435;-73
2021/04/29 10:27:55;;;;;;;14.90;11.73;;;;;;;22.19;60.01;94653.50;5073756;28;20842;-74
2021/04/29 10:30:31;;;;;;;20.27;12.20;;;;;;;22.44;60.92;94651.00;5073602;28;20575;-73
2021/04/29 10:32:57;;;;;;;23.40;12.13;;;;;;;22.61;61.10;94651.38;5073002;28;20446;-74
2021/04/29 10:35:26;;;;;;;14.73;11.37;;;;;;;22.70;59.13;94644.78;5073427;28;20466;-74
2021/04/29 10:37:59;;;;;;;18.57;12.07;;;;;;;22.81;59.54;94635.28;5073654;28;20489;-75
2021/04/29 10:40:36;;;;;;;19.60;10.60;;;;;;;22.79;57.65;94640.81;5073578;28;20455;-74
2021/04/29 10:43:04;;;;;;;18.03;11.77;;;;;;;22.78;58.88;94644.53;5055005;28;20447;-73
2021/04/29 10:45:31;;;;;;;21.27;13.13;;;;;;;22.75;60.23;94639.59;5073796;28;20443;-73
2021/04/29 10:48:05;;;;;;;18.67;11.10;;;;;;;22.72;59.84;94637.34;5073555;28;20450;-74
2021/04/29 10:50:44;;;;;;;18.00;11.93;;;;;;;22.56;60.67;94640.50;5073521;28;20999;-74
2021/04/29 10:53:13;;;;;;;17.47;11.90;;;;;;;22.47;59.58;94637.22;5073250;28;20927;-74
2021/04/29 10:55:43;;;;;;;16.70;11.77;;;;;;;22.56;59.22;94648.53;5073214;28;20788;-76
2021/04/29 10:58:20;;;;;;;16.80;10.83;;;;;;;22.74;60.42;94637.97;5072786;28;20483;-74
2021/04/29 11:00:56;;;;;;;13.40;8.67;;;;;;;22.57;56.05;94639.47;5073314;28;20813;-74
2021/04/29 11:03:29;;;;;;;14.87;8.70;;;;;;;22.70;56.90;94633.25;5073342;28;20779;-75
2021/04/29 11:06:08;;;;;;;12.07;8.83;;;;;;;22.91;56.71;94641.03;5073357;28;20956;-73
2021/04/29 11:08:37;;;;;;;13.17;11.20;;;;;;;22.81;55.19;94636.09;5073591;28;20808;-75
2021/04/29 11:11:04;;;;;;;14.63;10.40;;;;;;;22.82;54.62;94634.25;5073133;28;20503;-75
2021/04/29 11:13:30;;;;;;;27.13;9.30;;;;;;;22.83;55.09;94631.38;5073763;28;20446;-74
2021/04/29 11:15:58;;;;;;;17.90;12.50;;;;;;;22.68;56.21;94625.44;5074135;28;20536;-77
2021/04/29 11:18:25;;;;;;;17.20;10.53;;;;;;;22.58;54.95;94624.25;5074062;28;20440;-76
2021/04/29 11:20:53;;;;;;;16.33;11.03;;;;;;;22.44;55.22;94618.09;5073660;28;20449;-77
2021/04/29 11:23:25;;;;;;;16.23;9.93;;;;;;;22.31;55.12;94612.78;5073553;28;20852;-76
2021/04/29 11:26:04;;;;;;;21.40;9.80;;;;;;;22.42;54.35;94607.63;5073397;28;20536;-74
2021/04/29 11:28:30;;;;;;;18.70;8.73;;;;;;;22.50;54.17;94601.22;5073525;28;20445;-77
2021/04/29 11:30:57;;;;;;;17.67;9.20;;;;;;;22.64;54.60;94597.47;5073641;28;20490;-77
2021/04/29 11:33:31;;;;;;;15.50;9.17;;;;;;;22.89;54.91;94589.59;5055179;28;20928;-77
2021/04/29 11:35:57;;;;;;;15.83;9.97;;;;;;;22.93;53.59;94579.28;5074099;28;20445;-77
2021/04/29 11:38:24;;;;;;;18.47;8.80;;;;;;;22.97;56.83;94585.84;5038335;28;20597;-77
2021/04/29 11:40:50;;;;;;;17.63;10.90;;;;;;;23.05;53.54;94588.25;5054888;28;20463;-76
2021/04/29 11:43:17;;;;;;;16.90;9.40;;;;;;;23.09;53.41;94589.47;5073463;28;20502;-76
2021/04/29 11:45:45;;;;;;;12.93;9.60;;;;;;;23.02;52.61;94583.34;5072955;28;20452;-78
2021/04/29 11:48:13;;;;;;;19.37;7.97;;;;;;;23.19;54.67;94576.44;5084190;28;20444;-77
2021/04/29 11:50:41;;;;;;;13.00;8.52;;;;;;;23.35;52.02;94578.59;5072589;28;20461;-74
2021/04/29 11:53:12;;;;;;;18.20;10.40;;;;;;;23.40;51.86;94575.25;5072260;28;20213;-74
2021/04/29 11:55:40;;;;;;;11.73;8.17;;;;;;;23.37;51.41;94575.69;5072353;28;20447;-74
2021/04/29 11:58:08;;;;;;;16.03;8.63;;;;;;;23.27;51.82;94564.66;5072144;28;20444;-74
2021/04/29 12:00:37;;;;;;;26.80;10.73;;;;;;;23.33;51.65;94561.94;5072656;28;20535;-74
2021/04/29 12:03:07;;;;;;;12.50;8.80;;;;;;;23.45;51.05;94560.22;5073064;28;20458;-75
2021/04/29 12:05:35;;;;;;;19.97;9.00;;;;;;;23.52;50.28;94562.84;5050345;28;20460;-75
2021/04/29 12:08:01;;;;;;;12.73;9.37;;;;;;;23.41;50.26;94566.19;5092182;28;20961;-74
2021/04/29 12:10:41;;;;;;;11.50;7.03;;;;;;;23.35;50.31;94559.03;5092707;28;20549;-74
2021/04/29 12:13:07;;;;;;;13.10;8.00;;;;;;;23.47;52.02;94552.78;5092463;28;20982;-74
2021/04/29 12:15:35;;;;;;;18.80;8.23;;;;;;;23.49;51.93;94548.03;5056808;28;20447;-75
2021/04/29 12:18:03;;;;;;;16.07;8.37;;;;;;;23.45;49.81;94548.69;5072026;28;20448;-75
2021/04/29 12:20:29;;;;;;;19.80;8.90;;;;;;;23.43;49.93;94543.53;5092142;28;20459;-73
2021/04/29 12:22:56;;;;;;;12.57;7.37;;;;;;;23.55;49.00;94540.16;5091755;28;20812;-75
2021/04/29 12:25:23;;;;;;;13.80;7.70;;;;;;;23.57;48.98;94540.78;5092811;28;20447;-75
2021/04/29 12:27:50;;;;;;;15.60;7.90;;;;;;;23.70;50.00;94528.06;5092027;28;20790;-75
2021/04/29 12:30:17;;;;;;;15.67;8.67;;;;;;;23.55;48.96;94529.44;5084166;28;20488;-75
2021/04/29 12:32:46;;;;;;;14.80;7.80;;;;;;;23.68;49.49;94530.16;5053283;28;20809;-74
2021/04/29 12:35:14;;;;;;;15.83;7.27;;;;;;;23.83;49.86;94524.47;5072006;28;21011;-74
2021/04/29 12:37:51;;;;;;;11.23;6.70;;;;;;;23.89;47.16;94518.22;5071840;28;20793;-75
2021/04/29 12:40:26;;;;;;;20.83;8.40;;;;;;;23.90;46.53;94517.19;5071825;28;20507;-74
2021/04/29 12:43:03;;;;;;;13.10;7.20;;;;;;;23.96;47.49;94510.09;5071826;28;20864;-75
2021/04/29 12:45:29;;;;;;;13.00;7.35;;;;;;;24.08;45.81;94508.34;5080773;28;20913;-75
2021/04/29 12:47:56;;;;;;;12.63;6.60;;;;;;;24.15;45.23;94505.59;5056181;28;20201;-75
2021/04/29 12:50:23;;;;;;;17.17;7.00;;;;;;;24.14;45.38;94503.97;5078034;28;20492;-75
2021/04/29 12:52:50;;;;;;;13.20;6.50;;;;;;;24.23;45.14;94505.28;5071531;28;20452;-74
2021/04/29 12:55:19;;;;;;;14.93;6.80;;;;;;;24.15;44.95;94500.22;5071783;28;21002;-75
2021/04/29 12:57:46;;;;;;;9.97;6.90;;;;;;;24.26;45.62;94497.63;5074164;28;20537;-75
2021/04/29 13:00:14;;;;;;;10.53;6.47;;;;;;;24.28;44.67;94498.25;5075408;28;20455;-75
2021/04/29 13:02:40;;;;;;;12.00;7.07;;;;;;;24.29;43.77;94504.44;5079814;28;20445;-74
2021/04/29 13:05:10;;;;;;;8.73;7.00;;;;;;;24.34;43.80;94497.38;5056626;28;20454;-80
2021/04/29 13:07:37;;;;;;;14.67;7.67;;;;;;;24.27;47.58;94496.56;5095796;28;20446;-76
2021/04/29 13:10:14;;;;;;;12.50;8.53;;;;;;;24.22;49.67;94490.25;5094257;28;20476;-75
2021/04/29 13:12:49;;;;;;;13.20;6.60;;;;;;;24.07;49.99;94499.50;5095858;28;20514;-75
2021/04/29 13:15:15;;;;;;;13.53;6.30;;;;;;;23.70;50.20;94498.59;5096027;28;20469;-75
2021/04/29 13:17:45;;;;;;;13.40;6.20;;;;;;;23.55;51.84;94486.56;5096085;28;20495;-75
2021/04/29 13:20:16;;;;;;;7.60;6.83;;;;;;;23.32;50.71;94487.16;5085555;28;20872;-75
2021/04/29 13:22:44;;;;;;;12.40;7.20;;;;;;;23.18;51.22;94486.47;5077125;28;20460;-76
2021/04/29 13:25:13;;;;;;;12.23;7.40;;;;;;;23.07;51.71;94489.81;5075026;28;20448;-74
2021/04/29 13:27:40;;;;;;;7.53;6.77;;;;;;;23.17;51.21;94493.69;5075287;28;20450;-75
2021/04/29 13:30:07;;;;;;;17.20;7.47;;;;;;;23.39;51.18;94493.28;5076349;28;20816;-74
2021/04/29 13:32:34;;;;;;;11.57;6.70;;;;;;;23.54;50.05;94490.28;5094529;28;20452;-75
2021/04/29 13:35:01;;;;;;;10.23;6.13;;;;;;;23.70;50.09;94497.78;5076203;28;20964;-74
2021/04/29 13:37:28;;;;;;;9.47;6.70;;;;;;;23.69;50.18;94488.94;5075193;28;20927;-75
2021/04/29 13:39:55;;;;;;;16.57;6.80;;;;;;;23.81;50.20;94494.41;5055964;28;20485;-75
2021/04/29 13:42:21;;;;;;;15.20;7.60;;;;;;;23.90;49.69;94490.38;5075067;28;20446;-75
2021/04/29 13:44:48;;;;;;;11.97;6.83;;;;;;;23.93;49.53;94495.28;5075149;28;20446;-75
2021/04/29 13:47:14;;;;;;;9.70;5.67;;;;;;;23.86;48.43;94491.88;5038998;28;20541;-75
2021/04/29 13:49:40;;;;;;;9.93;6.27;;;;;;;23.88;48.60;94489.78;5074500;28;20452;-75
2021/04/29 13:52:07;;;;;;;10.00;6.30;;;;;;;23.76;47.80;94494.25;5074476;28;20577;-77
2021/04/29 13:54:34;;;;;;;9.27;6.30;;;;;;;23.70;48.31;94485.22;5039173;28;20449;-74
2021/04/29 13:57:00;;;;;;;9.37;5.70;;;;;;;23.88;48.63;94486.28;5074493;28;20446;-75
2021/04/29 13:59:26;;;;;;;11.10;6.17;;;;;;;24.03;47.07;94486.75;5074543;28;20451;-74
2021/04/29 14:01:53;;;;;;;9.23;5.57;;;;;;;24.05;46.15;94480.13;5074315;28;20446;-75
2021/04/29 14:04:19;;;;;;;20.83;7.00;;;;;;;24.04;46.25;94477.69;5074495;28;20447;-74
2021/04/29 14:06:46;;;;;;;7.10;5.00;;;;;;;24.19;46.99;94469.25;5074541;28;20499;-74
2021/04/29 14:09:13;;;;;;;12.50;5.90;;;;;;;24.25;46.90;94465.66;5074358;28;20450;-75
2021/04/29 14:11:43;;;;;;;12.10;5.93;;;;;;;24.24;46.20;94464.03;5074204;28;20993;-75
2021/04/29 14:14:09;;;;;;;8.93;5.90;;;;;;;24.30;46.51;94465.88;5074447;28;20554;-81
2021/04/29 14:16:35;;;;;;;15.57;5.30;;;;;;;24.20;45.93;94468.19;5075082;28;20462;-75
2021/04/29 14:19:02;;;;;;;12.03;5.80;;;;;;;24.15;45.78;94466.19;5039249;28;20447;-78
2021/04/29 14:21:28;;;;;;;7.47;5.73;;;;;;;24.24;45.75;94461.34;5074401;28;20525;-80
2021/04/29 14:23:54;;;;;;;7.00;5.27;;;;;;;23.95;44.98;94461.03;5075078;28;20444;-76
2021/04/29 14:26:21;;;;;;;7.33;4.93;;;;;;;23.92;46.06;94464.19;5074179;28;20948;-80
2021/04/29 14:28:48;;;;;;;9.33;4.80;;;;;;;23.98;46.22;94455.25;5074081;28;20446;-75
2021/04/29 14:31:14;;;;;;;7.77;4.70;;;;;;;24.02;46.11;94450.28;5073619;28;20483;-75
2021/04/29 14:33:41;;;;;;;6.83;4.93;;;;;;;23.96;47.00;94448.47;5074078;28;20445;-75
2021/04/29 14:36:07;;;;;;;8.73;5.20;;;;;;;23.72;46.08;94450.19;5074089;28;20847;-76
2021/04/29 14:38:34;;;;;;;5.47;4.97;;;;;;;23.83;47.12;94454.81;5074058;28;20458;-75
2021/04/29 14:41:01;;;;;;;10.40;4.77;;;;;;;23.92;47.16;94449.97;5073488;28;20452;-75
2021/04/29 14:43:28;;;;;;;7.00;5.67;;;;;;;23.88;47.23;94454.13;5073380;28;20503;-77
2021/04/29 14:45:55;;;;;;;8.30;5.33;;;;;;;23.70;47.44;94453.06;5073680;28;20793;-76
2021/04/29 14:48:22;;;;;;;8.80;6.30;;;;;;;23.66;48.55;94457.22;5074173;28;20447;-77
2021/04/29 14:50:48;;;;;;;10.40;5.70;;;;;;;23.63;48.52;94454.16;5054301;28;20836;-77
2021/04/29 14:53:15;;;;;;;7.57;5.47;;;;;;;23.60;48.89;94460.78;5081588;28;20448;-77
2021/04/29 14:55:42;;;;;;;6.73;6.00;;;;;;;23.61;49.68;94451.72;5049540;28;20464;-76
2021/04/29 14:58:09;;;;;;;9.83;7.23;;;;;;;23.51;50.11;94458.59;5087383;28;20448;-78
2021/04/29 15:00:35;;;;;;;7.23;6.20;;;;;;;23.52;50.55;94454.88;5079016;28;20457;-75
2021/04/29 15:03:05;;;;;;;7.77;6.40;;;;;;;23.45;50.78;94444.22;5093750;28;20450;-75
2021/04/29 15:05:32;;;;;;;12.63;7.10;;;;;;;23.46;50.96;94456.59;5093655;28;20448;-75
2021/04/29 15:07:59;;;;;;;7.50;6.70;;;;;;;23.34;50.72;94458.31;5082136;28;20454;-75
2021/04/29 15:10:27;;;;;;;9.53;6.50;;;;;;;23.36;50.97;94459.72;5073416;28;20540;-75
2021/04/29 15:12:54;;;;;;;13.07;7.17;;;;;;;23.32;51.79;94455.84;5073106;28;20927;-74
2021/04/29 15:15:20;;;;;;;9.67;6.33;;;;;;;23.34;50.74;94453.78;5042521;28;20929;-74
2021/04/29 15:17:47;;;;;;;12.07;7.67;;;;;;;23.22;51.96;94449.38;5093548;28;20451;-74
2021/04/29 15:20:15;;;;;;;13.17;5.87;;;;;;;23.08;51.39;94443.28;5092837;28;20830;-74
2021/04/29 15:22:42;;;;;;;23.27;7.77;;;;;;;23.05;51.85;94449.91;5093500;28;20500;-74
2021/04/29 15:25:12;;;;;;;12.00;7.40;;;;;;;22.86;51.89;94446.34;5093355;28;20452;-74
2021/04/29 15:27:41;;;;;;;15.33;7.93;;;;;;;22.95;52.43;94449.56;5093334;28;20488;-74
2021/04/29 15:30:08;;;;;;;20.17;8.77;;;;;;;22.98;51.96;94441.09;5089976;28;20458;-74
2021/04/29 15:32:35;;;;;;;8.27;7.47;;;;;;;22.83;52.52;94443.25;5070704;28;20443;-74
2021/04/29 15:35:01;;;;;;;12.37;8.27;;;;;;;22.80;52.69;94435.63;5053839;28;20780;-74
2021/04/29 15:37:28;;;;;;;8.80;6.87;;;;;;;22.62;52.74;94436.38;5072982;28;20446;-74
2021/04/29 15:39:54;;;;;;;8.03;7.13;;;;;;;22.69;52.88;94441.69;5072408;28;20850;-74
2021/04/29 15:42:21;;;;;;;14.63;7.47;;;;;;;22.67;53.25;94438.41;5072393;28;20455;-75
2021/04/29 15:44:47;;;;;;;19.07;8.80;;;;;;;22.67;53.33;94441.09;5072552;28;20926;-74
2021/04/29 15:47:14;;;;;;;15.77;7.87;;;;;;;22.59;53.22;94431.47;5072768;28;20577;-74
2021/04/29 15:49:41;;;;;;;13.87;7.47;;;;;;;22.65;53.16;94433.28;5072379;28;20459;-74
2021/04/29 15:52:07;;;;;;;11.07;9.10;;;;;;;22.63;52.83;94432.66;5061757;28;20547;-74
2021/04/29 15:54:34;;;;;;;17.33;7.97;;;;;;;22.69;53.04;94431.81;5092720;28;20462;-74
2021/04/29 15:57:02;;;;;;;8.83;7.10;;;;;;;22.73;53.03;94438.34;5092850;28;20504;-74
2021/04/29 15:59:28;;;;;;;13.80;8.30;;;;;;;22.74;52.84;94431.97;5056912;28;20529;-74
2021/04/29 16:01:54;;;;;;;15.07;8.07;;;;;;;22.80;53.17;94431.09;5092692;28;20458;-74
2021/04/29 16:04:21;;;;;;;13.83;7.70;;;;;;;22.86;52.73;94426.78;5092569;28;20944;-74
2021/04/29 16:06:47;;;;;;;18.13;7.70;;;;;;;22.92;53.14;94425.91;5092343;28;20489;-75
2021/04/29 16:09:14;;;;;;;15.70;8.33;;;;;;;22.89;52.44;94428.22;5092347;28;20508;-74
2021/04/29 16:11:42;;;;;;;9.00;7.70;;;;;;;22.89;52.36;94418.34;5092467;28;20484;-74
2021/04/29 16:14:08;;;;;;;14.40;8.77;;;;;;;22.86;52.09;94413.41;5092552;28;20490;-75
2021/04/29 16:16:34;;;;;;;9.43;7.30;;;;;;;22.78;51.50;94419.81;5092382;28;20446;-74
2021/04/29 16:19:01;;;;;;;14.90;7.70;;;;;;;22.78;51.83;94429.69;5092715;28;20442;-76
2021/04/29 16:21:27;;;;;;;10.50;7.27;;;;;;;22.76;52.22;94423.72;5092328;28;20472;-74
2021/04/29 16:23:53;;;;;;;9.80;7.27;;;;;;;22.67;51.84;94425.84;5092326;28;20953;-75
2021/04/29 16:26:20;;;;;;;11.33;7.33;;;;;;;22.58;51.35;94426.34;5053975;28;20529;-74
2021/04/29 16:28:47;;;;;;;16.50;7.17;;;;;;;22.54;51.50;94432.09;5072098;28;20451;-75
2021/04/29 16:31:14;;;;;;;10.40;7.40;;;;;;;22.57;51.65;94430.88;5079032;28;20490;-75
2021/04/29 16:33:40;;;;;;;10.80;7.07;;;;;;;22.56;51.75;94430.03;5079704;28;20451;-74
2021/04/29 16:36:07;;;;;;;9.60;7.20;;;;;;;22.54;51.51;94429.41;5075512;28;20468;-74
2021/04/29 16:38:34;;;;;;;14.70;7.73;;;;;;;22.49;50.84;94418.53;5095475;28;20454;-74
2021/04/29 16:41:00;;;;;;;15.07;7.17;;;;;;;22.42;50.17;94422.31;5096070;28;20441;-73
2021/04/29 16:43:27;;;;;;;16.03;6.30;;;;;;;22.36;49.60;94418.63;5095969;28;20450;-73
2021/04/29 16:45:54;;;;;;;13.53;6.23;;;;;;;22.20;48.91;94419.94;5096377;28;20448;-74
2021/04/29 16:48:21;;;;;;;10.20;5.80;;;;;;;22.22;49.50;94419.72;5095940;28;20444;-74
2021/04/29 16:50:48;;;;;;;7.57;5.97;;;;;;;22.23;49.26;94419.50;5095778;28;20488;-74
2021/04/29 16:53:14;;;;;;;13.17;6.40;;;;;;;22.18;49.33;94426.53;5096295;28;20448;-73
2021/04/29 16:55:40;;;;;;;12.50;7.20;;;;;;;22.21;49.79;94426.91;5087987;28;20434;-74
2021/04/29 16:58:07;;;;;;;15.67;7.17;;;;;;;22.15;49.18;94430.44;5075740;28;20310;-74
2021/04/29 17:00:34;;;;;;;10.40;6.40;;;;;;;22.04;49.83;94431.13;5075330;28;21212;-74
2021/04/29 17:03:01;;;;;;;14.60;6.80;;;;;;;21.98;50.26;94442.63;5075548;28;20496;-73
2021/04/29 17:05:28;;;;;;;15.50;7.30;;;;;;;21.81;50.83;94438.75;5075555;28;20447;-74
2021/04/29 17:07:55;;;;;;;12.30;7.10;;;;;;;21.76;51.14;94449.25;5075884;28;20503;-74
2021/04/29 17:10:23;;;;;;;17.63;7.20;;;;;;;21.70;50.81;94456.25;5076728;28;20481;-75
2021/04/29 17:12:50;;;;;;;9.83;6.97;;;;;;;21.63;50.86;94444.75;5075090;28;20456;-74
2021/04/29 17:15:17;;;;;;;10.00;6.87;;;;;;;21.59;50.92;94470.25;5074831;28;21034;-74
2021/04/29 17:17:45;;;;;;;10.33;6.93;;;;;;;21.53;50.32;94465.72;5075192;28;20446;-73
2021/04/29 17:20:13;;;;;;;10.80;6.50;;;;;;;21.46;50.72;94483.63;5075357;28;20446;-74
2021/04/29 17:22:40;;;;;;;15.50;7.00;;;;;;;21.28;50.55;94478.91;5075554;28;20437;-74
2021/04/29 17:25:08;;;;;;;16.57;7.40;;;;;;;21.33;51.27;94489.75;5075011;28;20457;-73
2021/04/29 17:27:35;;;;;;;14.33;8.00;;;;;;;21.33;51.63;94490.59;5075127;28;20821;-74
2021/04/29 17:30:01;;;;;;;13.53;7.63;;;;;;;21.37;51.95;94490.16;5075266;28;20441;-74
2021/04/29 17:32:27;;;;;;;14.27;6.60;;;;;;;21.01;50.55;94502.03;5074786;28;20980;-73
2021/04/29 17:34:54;;;;;;;8.43;6.47;;;;;;;20.80;52.57;94500.34;5074705;28;20450;-76
2021/04/29 17:37:21;;;;;;;12.80;7.47;;;;;;;20.62;53.21;94518.78;5075107;28;20436;-74
2021/04/29 17:39:48;;;;;;;20.47;6.50;;;;;;;20.48;53.31;94504.56;5074853;28;20457;-73
2021/04/29 17:42:14;;;;;;;25.27;8.47;;;;;;;20.31;54.37;94514.75;5074602;28;21036;-73
2021/04/29 17:44:41;;;;;;;12.03;7.63;;;;;;;20.27;53.32;94524.16;5074522;28;20445;-73
2021/04/29 17:47:07;;;;;;;10.60;6.40;;;;;;;20.26;52.49;94530.53;5074869;28;20449;-73
2021/04/29 17:49:33;;;;;;;12.53;7.17;;;;;;;20.24;52.63;94529.91;5074676;28;20501;-73
2021/04/29 17:51:59;;;;;;;16.23;6.47;;;;;;;20.12;51.98;94531.47;5074441;28;20481;-74
2021/04/29 17:54:27;;;;;;;8.57;5.47;;;;;;;20.08;52.57;94538.22;5074387;28;20444;-74
2021/04/29 17:56:53;;;;;;;12.10;6.50;;;;;;;20.07;52.39;94547.22;5074509;28;20447;-74
2021/04/29 17:59:20;;;;;;;15.87;6.80;;;;;;;20.26;51.89;94551.84;5074234;28;20453;-74
2021/04/29 18:01:46;;;;;;;15.33;7.83;;;;;;;20.07;53.42;94557.88;5074579;28;20459;-74
2021/04/29 18:04:13;;;;;;;11.10;6.40;;;;;;;19.98;54.03;94551.06;5074638;28;20443;-75
2021/04/29 18:06:39;;;;;;;11.95;7.00;;;;;;;19.95;54.43;94551.44;5073713;28;20438;-75
2021/04/29 18:09:07;;;;;;;10.60;8.07;;;;;;;20.02;54.47;94554.97;5074609;28;20249;-74
2021/04/29 18:11:34;;;;;;;10.97;6.33;;;;;;;19.89;53.98;94560.22;5073424;28;21216;-75
2021/04/29 18:14:00;;;;;;;7.33;5.97;;;;;;;19.74;54.44;94557.66;5073983;28;20458;-74
2021/04/29 18:16:27;;;;;;;12.53;7.10;;;;;;;19.72;54.96;94560.53;5074278;28;20455;-74
2021/04/29 18:18:53;;;;;;;8.20;5.67;;;;;;;19.61;55.50;94550.38;5074455;28;20568;-74
2021/04/29 18:21:19;;;;;;;11.00;6.47;;;;;;;19.70;55.68;94565.22;5074213;28;20440;-75
2021/04/29 18:23:45;;;;;;;15.93;6.67;;;;;;;19.69;55.78;94563.56;5074176;28;20449;-74
2021/04/29 18:26:12;;;;;;;8.30;5.73;;;;;;;19.50;56.50;94572.19;5038421;28;20442;-75
2021/04/29 18:28:39;;;;;;;8.90;6.70;;;;;;;19.39;56.96;94570.06;5074128;28;20454;-74
2021/04/29 18:31:05;;;;;;;12.70;6.60;;;;;;;19.61;56.94;94570.88;5073921;28;20490;-75
2021/04/29 18:33:33;;;;;;;10.27;6.30;;;;;;;19.63;55.70;94577.63;5073495;28;20454;-75
2021/04/29 18:35:59;;;;;;;16.80;6.17;;;;;;;19.72;55.47;94584.50;5073608;28;20486;-74
2021/04/29 18:38:25;;;;;;;12.53;6.77;;;;;;;19.76;54.49;94587.59;5073789;28;20491;-75
2021/04/29 18:40:55;;;;;;;13.83;6.03;;;;;;;19.62;53.98;94583.97;5073750;28;20580;-74
2021/04/29 18:43:21;;;;;;;12.20;6.23;;;;;;;19.59;53.52;94584.38;5038128;28;20441;-76
2021/04/29 18:45:49;;;;;;;8.47;6.33;;;;;;;19.59;54.19;94588.88;5073963;28;20450;-74
2021/04/29 18:48:17;;;;;;;9.30;6.67;;;;;;;19.58;53.95;94577.41;5073641;28;20575;-75
2021/04/29 18:50:43;;;;;;;13.33;6.47;;;;;;;19.48;55.09;94588.34;5073477;28;20628;-74
2021/04/29 18:53:09;;;;;;;13.77;6.27;;;;;;;19.45;55.13;94588.75;5073470;28;20989;-75
2021/04/29 18:55:36;;;;;;;14.00;6.90;;;;;;;19.41;54.79;94595.47;5072055;28;20451;-75
2021/04/29 18:58:03;;;;;;;13.27;6.33;;;;;;;19.44;55.02;94596.91;5073564;28;20462;-75
2021/04/29 19:00:29;;;;;;;6.47;5.13;;;;;;;19.38;55.75;94597.69;5054435;28;20435;-75
2021/04/29 19:02:57;;;;;;;9.50;5.97;;;;;;;19.27;56.41;94590.19;5073280;28;20505;-74
2021/04/29 19:05:23;;;;;;;11.50;5.80;;;;;;;19.29;56.57;94596.16;5073077;28;20477;-74
2021/04/29 19:07:50;;;;;;;16.97;6.70;;;;;;;19.31;56.80;94591.47;5073050;28;20446;-74
2021/04/29 19:10:17;;;;;;;9.67;5.67;;;;;;;19.01;57.72;94596.06;5073114;28;20478;-74
2021/04/29 19:12:43;;;;;;;15.87;6.53;;;;;;;19.08;58.57;94596.97;5054005;28;20486;-74
2021/04/29 19:15:12;;;;;;;14.10;6.60;;;;;;;19.11;58.80;94596.59;5072826;28;20457;-74
2021/04/29 19:17:38;;;;;;;27.17;7.30;;;;;;;19.08;58.52;94599.63;5073193;28;20533;-74
2021/04/29 19:20:08;;;;;;;9.97;7.30;;;;;;;19.10;60.00;94601.09;5072807;28;20448;-74
2021/04/29 19:22:34;;;;;;;16.83;7.37;;;;;;;19.08;60.96;94597.81;5066482;28;20495;-74
2021/04/29 19:25:01;;;;;;;12.83;8.00;;;;;;;19.03;61.95;94602.03;5072944;28;20447;-73
2021/04/29 19:27:27;;;;;;;13.73;8.10;;;;;;;19.00;62.03;94603.22;5073118;28;20985;-74
2021/04/29 19:29:53;;;;;;;16.27;8.67;;;;;;;18.91;62.20;94607.03;5072807;28;20480;-74
2021/04/29 19:32:20;;;;;;;18.50;8.30;;;;;;;18.99;62.17;94612.22;5072726;28;20482;-75
2021/04/29 19:34:46;;;;;;;11.03;8.30;;;;;;;18.97;62.24;94600.13;5053446;28;20445;-74
2021/04/29 19:37:13;;;;;;;18.33;8.73;;;;;;;19.04;63.34;94603.69;5072231;28;20446;-74